sensor_id;sensor_type;location;lat;lon;timestamp;temperature;humidity
9998;DHT22;5038;53.064;8.624;2022-12-10T00:01:41;1.30;99.90
9998;DHT22;5038;53.064;8.624;2022-12-10T00:04:10;1.20;99.90
9998;DHT22;5038;53.064;8.624;2022-12-10T00:06:39;1.20;99.90
9998;DHT22;5038;53.064;8.624;2022-12-10T00:09:10;1.20;99.90
9998;DHT22;5038;53.064;8.624;2022-12-10T00:11:41;1.20;99.90
9998;DHT22;5038;53.064;8.624;2022-12-10T00:14:09;1.20;99.90
9998;DHT22;5038;53.064;8.624;2022-12-10T00:16:39;1.20;99.90
9998;DHT22;5038;53.064;8.624;2022-12-10T00:19:07;1.20;99.90
9998;DHT22;5038;53.064;8.624;2022-12-10T00:21:36;1.30;99.90
9998;DHT22;5038;53.064;8.624;2022-12-10T00:24:04;1.20;99.90
9998;DHT22;5038;53.064;8.624;2022-12-10T00:26:35;1.20;99.90
9998;DHT22;5038;53.064;8.624;2022-12-10T00:29:06;1.30;99.90
9998;DHT22;5038;53.064;8.624;2022-12-10T00:31:36;1.30;99.90
9998;DHT22;5038;53.064;8.624;2022-12-10T00:34:06;1.20;99.90
9998;DHT22;5038;53.064;8.624;2022-12-10T00:36:37;1.30;99.90
9998;DHT22;5038;53.064;8.624;2022-12-10T00:39:06;1.30;99.90
9998;DHT22;5038;53.064;8.624;2022-12-10T00:41:34;1.30;99.90
9998;DHT22;5038;53.064;8.624;2022-12-10T00:44:04;1.30;99.90
9998;DHT22;5038;53.064;8.624;2022-12-10T00:46:32;1.20;99.90
9998;DHT22;5038;53.064;8.624;2022-12-10T00:49:03;1.20;99.90
9998;DHT22;5038;53.064;8.624;2022-12-10T00:51:31;1.20;99.90
9998;DHT22;5038;53.064;8.624;2022-12-10T00:54:00;1.20;99.90
9998;DHT22;5038;53.064;8.624;2022-12-10T00:56:29;1.20;99.90
9998;DHT22;5038;53.064;8.624;2022-12-10T00:58:59;1.20;99.90
9998;DHT22;5038;53.064;8.624;2022-12-10T01:01:30;1.20;99.90
9998;DHT22;5038;53.064;8.624;2022-12-10T01:04:03;1.20;99.90
9998;DHT22;5038;53.064;8.624;2022-12-10T01:06:34;1.20;99.90
9998;DHT22;5038;53.064;8.624;2022-12-10T01:09:05;1.20;99.90
9998;DHT22;5038;53.064;8.624;2022-12-10T01:11:35;1.20;99.90
9998;DHT22;5038;53.064;8.624;2022-12-10T01:14:05;1.20;99.90
9998;DHT22;5038;53.064;8.624;2022-12-10T01:16:35;1.20;99.90
9998;DHT22;5038;53.064;8.624;2022-12-10T01:19:04;1.20;99.90
9998;DHT22;5038;53.064;8.624;2022-12-10T01:21:34;1.20;99.90
9998;DHT22;5038;53.064;8.624;2022-12-10T01:24:03;1.20;99.90
9998;DHT22;5038;53.064;8.624;2022-12-10T01:26:33;1.20;99.90
9998;DHT22;5038;53.064;8.624;2022-12-10T01:29:02;1.20;99.90
9998;DHT22;5038;53.064;8.624;2022-12-10T01:31:32;1.20;99.90
9998;DHT22;5038;53.064;8.624;2022-12-10T01:34:05;1.20;99.90
9998;DHT22;5038;53.064;8.624;2022-12-10T01:36:35;1.30;99.90
9998;DHT22;5038;53.064;8.624;2022-12-10T01:39:06;1.20;99.90
9998;DHT22;5038;53.064;8.624;2022-12-10T01:41:38;1.20;99.90
9998;DHT22;5038;53.064;8.624;2022-12-10T01:47:10;1.30;99.90
9998;DHT22;5038;53.064;8.624;2022-12-10T01:49:40;1.20;99.90
9998;DHT22;5038;53.064;8.624;2022-12-10T01:52:11;1.20;99.90
9998;DHT22;5038;53.064;8.624;2022-12-10T01:54:42;1.20;99.90
9998;DHT22;5038;53.064;8.624;2022-12-10T01:57:13;1.30;99.90
9998;DHT22;5038;53.064;8.624;2022-12-10T01:59:43;1.30;99.90
9998;DHT22;5038;53.064;8.624;2022-12-10T02:02:16;1.30;99.90
9998;DHT22;5038;53.064;8.624;2022-12-10T02:04:56;1.30;99.90
9998;DHT22;5038;53.064;8.624;2022-12-10T02:07:41;1.20;99.90
9998;DHT22;5038;53.064;8.624;2022-12-10T02:10:22;1.30;99.90
9998;DHT22;5038;53.064;8.624;2022-12-10T02:12:57;1.30;99.90
9998;DHT22;5038;53.064;8.624;2022-12-10T02:15:29;1.30;99.90
9998;DHT22;5038;53.064;8.624;2022-12-10T02:18:03;1.30;99.90
9998;DHT22;5038;53.064;8.624;2022-12-10T02:20:36;1.30;99.90
9998;DHT22;5038;53.064;8.624;2022-12-10T02:23:10;1.30;99.90
9998;DHT22;5038;53.064;8.624;2022-12-10T02:25:43;1.30;99.90
9998;DHT22;5038;53.064;8.624;2022-12-10T02:28:21;1.30;99.90
9998;DHT22;5038;53.064;8.624;2022-12-10T02:30:53;1.30;99.90
9998;DHT22;5038;53.064;8.624;2022-12-10T02:33:23;1.30;99.90
9998;DHT22;5038;53.064;8.624;2022-12-10T02:35:53;1.30;99.90
9998;DHT22;5038;53.064;8.624;2022-12-10T02:38:26;1.30;99.90
9998;DHT22;5038;53.064;8.624;2022-12-10T02:41:01;1.30;99.90
9998;DHT22;5038;53.064;8.624;2022-12-10T02:43:33;1.30;99.90
9998;DHT22;5038;53.064;8.624;2022-12-10T02:46:05;1.30;99.90
9998;DHT22;5038;53.064;8.624;2022-12-10T02:48:34;1.30;99.90
9998;DHT22;5038;53.064;8.624;2022-12-10T02:51:03;1.30;99.90
9998;DHT22;5038;53.064;8.624;2022-12-10T02:53:31;1.30;99.90
9998;DHT22;5038;53.064;8.624;2022-12-10T02:56:11;1.30;99.90
9998;DHT22;5038;53.064;8.624;2022-12-10T02:58:54;1.30;99.90
9998;DHT22;5038;53.064;8.624;2022-12-10T03:01:36;1.30;99.90
9998;DHT22;5038;53.064;8.624;2022-12-10T03:04:12;1.40;99.90
9998;DHT22;5038;53.064;8.624;2022-12-10T03:06:45;1.30;99.90
9998;DHT22;5038;53.064;8.624;2022-12-10T03:09:19;1.30;99.90
9998;DHT22;5038;53.064;8.624;2022-12-10T03:11:54;1.30;99.90
9998;DHT22;5038;53.064;8.624;2022-12-10T03:14:28;1.30;99.90
9998;DHT22;5038;53.064;8.624;2022-12-10T03:16:59;1.30;99.90
9998;DHT22;5038;53.064;8.624;2022-12-10T03:19:32;1.30;99.90
9998;DHT22;5038;53.064;8.624;2022-12-10T03:22:02;1.30;99.90
9998;DHT22;5038;53.064;8.624;2022-12-10T03:24:31;1.30;99.90
9998;DHT22;5038;53.064;8.624;2022-12-10T03:27:02;1.30;99.90
9998;DHT22;5038;53.064;8.624;2022-12-10T03:29:34;1.30;99.90
9998;DHT22;5038;53.064;8.624;2022-12-10T03:32:05;1.30;99.90
9998;DHT22;5038;53.064;8.624;2022-12-10T03:34:34;1.30;99.90
9998;DHT22;5038;53.064;8.624;2022-12-10T03:37:04;1.30;99.90
9998;DHT22;5038;53.064;8.624;2022-12-10T03:39:33;1.30;99.90
9998;DHT22;5038;53.064;8.624;2022-12-10T03:42:01;1.30;99.90
9998;DHT22;5038;53.064;8.624;2022-12-10T03:44:31;1.30;99.90
9998;DHT22;5038;53.064;8.624;2022-12-10T03:47:00;1.40;99.90
9998;DHT22;5038;53.064;8.624;2022-12-10T03:49:30;1.30;99.90
9998;DHT22;5038;53.064;8.624;2022-12-10T03:51:58;1.30;99.90
9998;DHT22;5038;53.064;8.624;2022-12-10T03:54:26;1.30;99.90
9998;DHT22;5038;53.064;8.624;2022-12-10T03:56:55;1.40;99.90
9998;DHT22;5038;53.064;8.624;2022-12-10T03:59:23;1.40;99.90
9998;DHT22;5038;53.064;8.624;2022-12-10T04:01:51;1.40;99.90
9998;DHT22;5038;53.064;8.624;2022-12-10T04:04:19;1.40;99.90
9998;DHT22;5038;53.064;8.624;2022-12-10T04:06:49;1.40;99.90
9998;DHT22;5038;53.064;8.624;2022-12-10T04:09:17;1.40;99.90
9998;DHT22;5038;53.064;8.624;2022-12-10T04:11:45;1.40;99.90
9998;DHT22;5038;53.064;8.624;2022-12-10T04:14:13;1.40;99.90
9998;DHT22;5038;53.064;8.624;2022-12-10T04:16:59;1.40;99.90
9998;DHT22;5038;53.064;8.624;2022-12-10T04:19:27;1.40;99.90
9998;DHT22;5038;53.064;8.624;2022-12-10T04:21:57;1.30;99.90
9998;DHT22;5038;53.064;8.624;2022-12-10T04:24:42;1.40;99.90
9998;DHT22;5038;53.064;8.624;2022-12-10T04:27:29;1.30;99.90
9998;DHT22;5038;53.064;8.624;2022-12-10T04:29:59;1.30;99.90
9998;DHT22;5038;53.064;8.624;2022-12-10T04:32:29;1.30;99.90
9998;DHT22;5038;53.064;8.624;2022-12-10T04:34:57;1.30;99.90
9998;DHT22;5038;53.064;8.624;2022-12-10T04:37:28;1.40;99.90
9998;DHT22;5038;53.064;8.624;2022-12-10T04:39:56;1.30;99.90
9998;DHT22;5038;53.064;8.624;2022-12-10T04:42:24;1.30;99.90
9998;DHT22;5038;53.064;8.624;2022-12-10T04:44:52;1.40;99.90
9998;DHT22;5038;53.064;8.624;2022-12-10T04:47:20;1.40;99.90
9998;DHT22;5038;53.064;8.624;2022-12-10T04:49:48;1.30;99.90
9998;DHT22;5038;53.064;8.624;2022-12-10T04:52:17;1.30;99.90
9998;DHT22;5038;53.064;8.624;2022-12-10T04:54:46;1.30;99.90
9998;DHT22;5038;53.064;8.624;2022-12-10T04:57:14;1.40;99.90
9998;DHT22;5038;53.064;8.624;2022-12-10T04:59:42;1.30;99.90
9998;DHT22;5038;53.064;8.624;2022-12-10T05:02:11;1.30;99.90
9998;DHT22;5038;53.064;8.624;2022-12-10T05:04:39;1.30;99.90
9998;DHT22;5038;53.064;8.624;2022-12-10T05:07:07;1.30;99.90
9998;DHT22;5038;53.064;8.624;2022-12-10T05:09:35;1.30;99.90
9998;DHT22;5038;53.064;8.624;2022-12-10T05:12:05;1.30;99.90
9998;DHT22;5038;53.064;8.624;2022-12-10T05:14:33;1.30;99.90
9998;DHT22;5038;53.064;8.624;2022-12-10T05:17:02;1.30;99.90
9998;DHT22;5038;53.064;8.624;2022-12-10T05:19:30;1.30;99.90
9998;DHT22;5038;53.064;8.624;2022-12-10T05:21:58;1.30;99.90
9998;DHT22;5038;53.064;8.624;2022-12-10T05:24:44;1.30;99.90
9998;DHT22;5038;53.064;8.624;2022-12-10T05:27:15;1.30;99.90
9998;DHT22;5038;53.064;8.624;2022-12-10T05:29:43;1.30;99.90
9998;DHT22;5038;53.064;8.624;2022-12-10T05:32:11;1.30;99.90
9998;DHT22;5038;53.064;8.624;2022-12-10T05:34:39;1.30;99.90
9998;DHT22;5038;53.064;8.624;2022-12-10T05:37:07;1.30;99.90
9998;DHT22;5038;53.064;8.624;2022-12-10T05:39:36;1.30;99.90
9998;DHT22;5038;53.064;8.624;2022-12-10T05:42:04;1.30;99.90
9998;DHT22;5038;53.064;8.624;2022-12-10T05:44:33;1.30;99.90
9998;DHT22;5038;53.064;8.624;2022-12-10T05:47:01;1.30;99.90
9998;DHT22;5038;53.064;8.624;2022-12-10T05:49:29;1.30;99.90
9998;DHT22;5038;53.064;8.624;2022-12-10T05:51:58;1.20;99.90
9998;DHT22;5038;53.064;8.624;2022-12-10T05:54:26;1.30;99.90
9998;DHT22;5038;53.064;8.624;2022-12-10T05:56:54;1.30;99.90
9998;DHT22;5038;53.064;8.624;2022-12-10T05:59:22;1.30;99.90
9998;DHT22;5038;53.064;8.624;2022-12-10T06:01:51;1.30;99.90
9998;DHT22;5038;53.064;8.624;2022-12-10T06:04:19;1.20;99.90
9998;DHT22;5038;53.064;8.624;2022-12-10T06:06:48;1.20;99.90
9998;DHT22;5038;53.064;8.624;2022-12-10T06:09:16;1.20;99.90
9998;DHT22;5038;53.064;8.624;2022-12-10T06:11:44;1.20;99.90
9998;DHT22;5038;53.064;8.624;2022-12-10T06:14:13;1.20;99.90
9998;DHT22;5038;53.064;8.624;2022-12-10T06:16:42;1.20;99.90
9998;DHT22;5038;53.064;8.624;2022-12-10T06:19:11;1.20;99.90
9998;DHT22;5038;53.064;8.624;2022-12-10T06:21:39;1.20;99.90
9998;DHT22;5038;53.064;8.624;2022-12-10T06:24:07;1.20;99.90
9998;DHT22;5038;53.064;8.624;2022-12-10T06:26:35;1.20;99.90
9998;DHT22;5038;53.064;8.624;2022-12-10T06:29:04;1.20;99.90
9998;DHT22;5038;53.064;8.624;2022-12-10T06:31:32;1.20;99.90
9998;DHT22;5038;53.064;8.624;2022-12-10T06:34:01;1.20;99.90
9998;DHT22;5038;53.064;8.624;2022-12-10T06:36:31;1.20;99.90
9998;DHT22;5038;53.064;8.624;2022-12-10T06:38:59;1.20;99.90
9998;DHT22;5038;53.064;8.624;2022-12-10T06:41:27;1.20;99.90
9998;DHT22;5038;53.064;8.624;2022-12-10T06:43:55;1.10;99.90
9998;DHT22;5038;53.064;8.624;2022-12-10T06:46:26;1.10;99.90
9998;DHT22;5038;53.064;8.624;2022-12-10T06:48:55;1.20;99.90
9998;DHT22;5038;53.064;8.624;2022-12-10T06:51:24;1.20;99.90
9998;DHT22;5038;53.064;8.624;2022-12-10T06:53:54;1.20;99.90
9998;DHT22;5038;53.064;8.624;2022-12-10T06:56:22;1.10;99.90
9998;DHT22;5038;53.064;8.624;2022-12-10T06:58:52;1.10;99.90
9998;DHT22;5038;53.064;8.624;2022-12-10T07:01:23;1.20;99.90
9998;DHT22;5038;53.064;8.624;2022-12-10T07:03:54;1.10;99.90
9998;DHT22;5038;53.064;8.624;2022-12-10T07:06:24;1.20;99.90
9998;DHT22;5038;53.064;8.624;2022-12-10T07:08:53;1.20;99.90
9998;DHT22;5038;53.064;8.624;2022-12-10T07:11:23;1.20;99.90
9998;DHT22;5038;53.064;8.624;2022-12-10T07:13:52;1.10;99.90
9998;DHT22;5038;53.064;8.624;2022-12-10T07:16:22;1.20;99.90
9998;DHT22;5038;53.064;8.624;2022-12-10T07:18:50;1.10;99.90
9998;DHT22;5038;53.064;8.624;2022-12-10T07:21:20;1.20;99.90
9998;DHT22;5038;53.064;8.624;2022-12-10T07:23:49;1.20;99.90
9998;DHT22;5038;53.064;8.624;2022-12-10T07:26:18;1.10;99.90
9998;DHT22;5038;53.064;8.624;2022-12-10T07:28:47;1.20;99.90
9998;DHT22;5038;53.064;8.624;2022-12-10T07:31:20;1.20;99.90
9998;DHT22;5038;53.064;8.624;2022-12-10T07:33:52;1.20;99.90
9998;DHT22;5038;53.064;8.624;2022-12-10T07:36:22;1.20;99.90
9998;DHT22;5038;53.064;8.624;2022-12-10T07:38:50;1.20;99.90
9998;DHT22;5038;53.064;8.624;2022-12-10T07:41:21;1.20;99.90
9998;DHT22;5038;53.064;8.624;2022-12-10T07:43:49;1.20;99.90
9998;DHT22;5038;53.064;8.624;2022-12-10T07:46:20;1.20;99.90
9998;DHT22;5038;53.064;8.624;2022-12-10T07:48:49;1.20;99.90
9998;DHT22;5038;53.064;8.624;2022-12-10T07:51:19;1.10;99.90
9998;DHT22;5038;53.064;8.624;2022-12-10T07:53:52;1.20;99.90
9998;DHT22;5038;53.064;8.624;2022-12-10T07:56:23;1.20;99.90
9998;DHT22;5038;53.064;8.624;2022-12-10T07:58:52;1.20;99.90
9998;DHT22;5038;53.064;8.624;2022-12-10T08:01:22;1.20;99.90
9998;DHT22;5038;53.064;8.624;2022-12-10T08:03:51;1.20;99.90
9998;DHT22;5038;53.064;8.624;2022-12-10T08:06:20;1.20;99.90
9998;DHT22;5038;53.064;8.624;2022-12-10T08:08:49;1.20;99.90
9998;DHT22;5038;53.064;8.624;2022-12-10T08:11:18;1.20;99.90
9998;DHT22;5038;53.064;8.624;2022-12-10T08:13:49;1.20;99.90
9998;DHT22;5038;53.064;8.624;2022-12-10T08:16:24;1.20;99.90
9998;DHT22;5038;53.064;8.624;2022-12-10T08:18:54;1.20;99.90
9998;DHT22;5038;53.064;8.624;2022-12-10T08:21:24;1.20;99.90
9998;DHT22;5038;53.064;8.624;2022-12-10T08:23:53;1.20;99.90
9998;DHT22;5038;53.064;8.624;2022-12-10T08:26:22;1.30;99.90
9998;DHT22;5038;53.064;8.624;2022-12-10T08:28:54;1.20;99.90
9998;DHT22;5038;53.064;8.624;2022-12-10T08:31:23;1.30;99.90
9998;DHT22;5038;53.064;8.624;2022-12-10T08:33:53;1.30;99.90
9998;DHT22;5038;53.064;8.624;2022-12-10T08:36:21;1.30;99.90
9998;DHT22;5038;53.064;8.624;2022-12-10T08:38:50;1.30;99.90
9998;DHT22;5038;53.064;8.624;2022-12-10T08:41:20;1.30;99.90
9998;DHT22;5038;53.064;8.624;2022-12-10T08:43:52;1.30;99.90
9998;DHT22;5038;53.064;8.624;2022-12-10T08:46:20;1.30;99.90
9998;DHT22;5038;53.064;8.624;2022-12-10T08:48:49;1.40;99.90
9998;DHT22;5038;53.064;8.624;2022-12-10T08:51:19;1.30;99.90
9998;DHT22;5038;53.064;8.624;2022-12-10T08:53:47;1.40;99.90
9998;DHT22;5038;53.064;8.624;2022-12-10T08:56:15;1.40;99.90
9998;DHT22;5038;53.064;8.624;2022-12-10T08:58:43;1.40;99.90
9998;DHT22;5038;53.064;8.624;2022-12-10T09:01:14;1.40;99.90
9998;DHT22;5038;53.064;8.624;2022-12-10T09:03:43;1.40;99.90
9998;DHT22;5038;53.064;8.624;2022-12-10T09:06:13;1.40;99.90
9998;DHT22;5038;53.064;8.624;2022-12-10T09:08:41;1.40;99.90
9998;DHT22;5038;53.064;8.624;2022-12-10T09:11:11;1.50;99.90
9998;DHT22;5038;53.064;8.624;2022-12-10T09:13:40;1.50;99.90
9998;DHT22;5038;53.064;8.624;2022-12-10T09:16:08;1.50;99.90
9998;DHT22;5038;53.064;8.624;2022-12-10T09:18:39;1.50;99.90
9998;DHT22;5038;53.064;8.624;2022-12-10T09:21:09;1.50;99.90
9998;DHT22;5038;53.064;8.624;2022-12-10T09:23:40;1.50;99.90
9998;DHT22;5038;53.064;8.624;2022-12-10T09:26:10;1.60;99.90
9998;DHT22;5038;53.064;8.624;2022-12-10T09:28:38;1.60;99.90
9998;DHT22;5038;53.064;8.624;2022-12-10T09:31:07;1.60;99.90
9998;DHT22;5038;53.064;8.624;2022-12-10T09:33:48;1.60;99.90
9998;DHT22;5038;53.064;8.624;2022-12-10T09:36:17;1.60;99.90
9998;DHT22;5038;53.064;8.624;2022-12-10T09:38:46;1.70;99.90
9998;DHT22;5038;53.064;8.624;2022-12-10T09:44:10;1.70;99.90
9998;DHT22;5038;53.064;8.624;2022-12-10T09:46:47;1.80;99.90
9998;DHT22;5038;53.064;8.624;2022-12-10T09:49:26;1.80;99.90
9998;DHT22;5038;53.064;8.624;2022-12-10T09:51:59;1.80;99.90
9998;DHT22;5038;53.064;8.624;2022-12-10T09:54:31;1.80;99.90
9998;DHT22;5038;53.064;8.624;2022-12-10T09:57:04;1.90;99.90
9998;DHT22;5038;53.064;8.624;2022-12-10T09:59:40;1.90;99.90
9998;DHT22;5038;53.064;8.624;2022-12-10T10:02:21;1.90;99.90
9998;DHT22;5038;53.064;8.624;2022-12-10T10:04:53;1.90;99.90
9998;DHT22;5038;53.064;8.624;2022-12-10T10:07:24;2.00;99.90
9998;DHT22;5038;53.064;8.624;2022-12-10T10:09:57;2.00;99.90
9998;DHT22;5038;53.064;8.624;2022-12-10T10:12:27;2.00;99.90
9998;DHT22;5038;53.064;8.624;2022-12-10T10:14:56;2.00;99.90
9998;DHT22;5038;53.064;8.624;2022-12-10T10:17:29;2.00;99.90
9998;DHT22;5038;53.064;8.624;2022-12-10T10:20:00;2.00;99.90
9998;DHT22;5038;53.064;8.624;2022-12-10T10:22:29;2.00;99.90
9998;DHT22;5038;53.064;8.624;2022-12-10T10:24:57;2.10;99.90
9998;DHT22;5038;53.064;8.624;2022-12-10T10:27:30;2.10;99.90
9998;DHT22;5038;53.064;8.624;2022-12-10T10:30:03;2.10;99.90
9998;DHT22;5038;53.064;8.624;2022-12-10T10:32:45;2.10;99.90
9998;DHT22;5038;53.064;8.624;2022-12-10T10:35:26;2.20;99.90
9998;DHT22;5038;53.064;8.624;2022-12-10T10:38:01;2.20;99.90
9998;DHT22;5038;53.064;8.624;2022-12-10T10:40:32;2.20;99.90
9998;DHT22;5038;53.064;8.624;2022-12-10T10:43:01;2.20;99.90
9998;DHT22;5038;53.064;8.624;2022-12-10T10:45:38;2.20;99.90
9998;DHT22;5038;53.064;8.624;2022-12-10T10:48:11;2.20;99.90
9998;DHT22;5038;53.064;8.624;2022-12-10T10:50:43;2.20;99.90
9998;DHT22;5038;53.064;8.624;2022-12-10T10:53:27;2.20;99.90
9998;DHT22;5038;53.064;8.624;2022-12-10T10:55:59;2.30;99.90
9998;DHT22;5038;53.064;8.624;2022-12-10T10:58:32;2.30;99.90
9998;DHT22;5038;53.064;8.624;2022-12-10T11:01:02;2.30;99.90
9998;DHT22;5038;53.064;8.624;2022-12-10T11:03:34;2.30;99.90
9998;DHT22;5038;53.064;8.624;2022-12-10T11:06:07;2.30;99.90
9998;DHT22;5038;53.064;8.624;2022-12-10T11:08:37;2.30;99.90
9998;DHT22;5038;53.064;8.624;2022-12-10T11:11:11;2.40;99.90
9998;DHT22;5038;53.064;8.624;2022-12-10T11:13:40;2.40;99.90
9998;DHT22;5038;53.064;8.624;2022-12-10T11:16:12;2.40;99.90
9998;DHT22;5038;53.064;8.624;2022-12-10T11:18:52;2.40;99.90
9998;DHT22;5038;53.064;8.624;2022-12-10T11:21:23;2.50;99.90
9998;DHT22;5038;53.064;8.624;2022-12-10T11:23:54;2.50;99.90
9998;DHT22;5038;53.064;8.624;2022-12-10T11:26:43;2.50;99.90
9998;DHT22;5038;53.064;8.624;2022-12-10T11:29:25;2.50;99.90
9998;DHT22;5038;53.064;8.624;2022-12-10T11:32:05;2.50;99.90
9998;DHT22;5038;53.064;8.624;2022-12-10T11:34:49;2.50;99.90
9998;DHT22;5038;53.064;8.624;2022-12-10T11:37:28;2.50;99.90
9998;DHT22;5038;53.064;8.624;2022-12-10T11:40:30;2.50;99.90
9998;DHT22;5038;53.064;8.624;2022-12-10T11:46:05;2.40;99.90
9998;DHT22;5038;53.064;8.624;2022-12-10T11:51:35;2.40;99.90
9998;DHT22;5038;53.064;8.624;2022-12-10T11:54:27;2.50;99.90
9998;DHT22;5038;53.064;8.624;2022-12-10T11:57:05;2.40;99.90
9998;DHT22;5038;53.064;8.624;2022-12-10T11:59:41;2.50;99.90
9998;DHT22;5038;53.064;8.624;2022-12-10T12:05:39;2.50;99.90
9998;DHT22;5038;53.064;8.624;2022-12-10T12:08:16;2.50;99.90
9998;DHT22;5038;53.064;8.624;2022-12-10T12:11:04;2.50;99.90
9998;DHT22;5038;53.064;8.624;2022-12-10T12:13:41;2.40;99.90
9998;DHT22;5038;53.064;8.624;2022-12-10T12:16:14;2.40;99.90
9998;DHT22;5038;53.064;8.624;2022-12-10T12:18:51;2.40;99.90
9998;DHT22;5038;53.064;8.624;2022-12-10T12:21:21;2.40;99.90
9998;DHT22;5038;53.064;8.624;2022-12-10T12:23:52;2.40;99.90
9998;DHT22;5038;53.064;8.624;2022-12-10T12:26:34;2.40;99.90
9998;DHT22;5038;53.064;8.624;2022-12-10T12:29:13;2.40;99.90
9998;DHT22;5038;53.064;8.624;2022-12-10T12:31:46;2.40;99.90
9998;DHT22;5038;53.064;8.624;2022-12-10T12:34:20;2.40;99.90
9998;DHT22;5038;53.064;8.624;2022-12-10T12:36:49;2.40;99.90
9998;DHT22;5038;53.064;8.624;2022-12-10T12:39:22;2.40;99.90
9998;DHT22;5038;53.064;8.624;2022-12-10T12:41:57;2.40;99.90
9998;DHT22;5038;53.064;8.624;2022-12-10T12:44:34;2.40;99.90
9998;DHT22;5038;53.064;8.624;2022-12-10T12:47:14;2.40;99.90
9998;DHT22;5038;53.064;8.624;2022-12-10T12:49:44;2.40;99.90
9998;DHT22;5038;53.064;8.624;2022-12-10T12:52:25;2.40;99.90
9998;DHT22;5038;53.064;8.624;2022-12-10T12:54:57;2.30;99.90
9998;DHT22;5038;53.064;8.624;2022-12-10T12:57:34;2.40;99.90
9998;DHT22;5038;53.064;8.624;2022-12-10T13:00:08;2.40;99.90
9998;DHT22;5038;53.064;8.624;2022-12-10T13:02:53;2.40;99.90
9998;DHT22;5038;53.064;8.624;2022-12-10T13:05:27;2.40;99.90
9998;DHT22;5038;53.064;8.624;2022-12-10T13:08:25;2.40;99.90
9998;DHT22;5038;53.064;8.624;2022-12-10T13:11:01;2.30;99.90
9998;DHT22;5038;53.064;8.624;2022-12-10T13:17:07;2.30;99.90
9998;DHT22;5038;53.064;8.624;2022-12-10T13:19:36;2.30;99.90
9998;DHT22;5038;53.064;8.624;2022-12-10T13:22:06;2.30;99.90
9998;DHT22;5038;53.064;8.624;2022-12-10T13:25:05;2.30;99.90
9998;DHT22;5038;53.064;8.624;2022-12-10T13:27:35;2.30;99.90
9998;DHT22;5038;53.064;8.624;2022-12-10T13:30:26;2.30;99.90
9998;DHT22;5038;53.064;8.624;2022-12-10T13:33:05;2.30;99.90
9998;DHT22;5038;53.064;8.624;2022-12-10T13:35:48;2.30;99.90
9998;DHT22;5038;53.064;8.624;2022-12-10T13:38:19;2.30;99.90
9998;DHT22;5038;53.064;8.624;2022-12-10T13:41:01;2.40;99.90
9998;DHT22;5038;53.064;8.624;2022-12-10T13:43:53;2.30;99.90
9998;DHT22;5038;53.064;8.624;2022-12-10T13:47:04;2.30;99.90
9998;DHT22;5038;53.064;8.624;2022-12-10T13:49:44;2.30;99.90
9998;DHT22;5038;53.064;8.624;2022-12-10T13:52:19;2.30;99.90
9998;DHT22;5038;53.064;8.624;2022-12-10T13:55:16;2.30;99.90
9998;DHT22;5038;53.064;8.624;2022-12-10T13:58:13;2.30;99.90
9998;DHT22;5038;53.064;8.624;2022-12-10T14:00:49;2.20;99.90
9998;DHT22;5038;53.064;8.624;2022-12-10T14:03:46;2.30;99.90
9998;DHT22;5038;53.064;8.624;2022-12-10T14:06:19;2.30;99.90
9998;DHT22;5038;53.064;8.624;2022-12-10T14:08:55;2.20;99.90
9998;DHT22;5038;53.064;8.624;2022-12-10T14:11:28;2.20;99.90
9998;DHT22;5038;53.064;8.624;2022-12-10T14:14:05;2.20;99.90
9998;DHT22;5038;53.064;8.624;2022-12-10T14:16:34;2.20;99.90
9998;DHT22;5038;53.064;8.624;2022-12-10T14:19:07;2.20;99.90
9998;DHT22;5038;53.064;8.624;2022-12-10T14:21:41;2.20;99.90
9998;DHT22;5038;53.064;8.624;2022-12-10T14:24:26;2.20;99.90
9998;DHT22;5038;53.064;8.624;2022-12-10T14:26:58;2.20;99.90
9998;DHT22;5038;53.064;8.624;2022-12-10T14:29:26;2.20;99.90
9998;DHT22;5038;53.064;8.624;2022-12-10T14:31:55;2.20;99.90
9998;DHT22;5038;53.064;8.624;2022-12-10T14:34:27;2.10;99.90
9998;DHT22;5038;53.064;8.624;2022-12-10T14:36:57;2.20;99.90
9998;DHT22;5038;53.064;8.624;2022-12-10T14:39:27;2.20;99.90
9998;DHT22;5038;53.064;8.624;2022-12-10T14:41:57;2.20;99.90
9998;DHT22;5038;53.064;8.624;2022-12-10T14:44:27;2.10;99.90
9998;DHT22;5038;53.064;8.624;2022-12-10T14:47:04;2.10;99.90
9998;DHT22;5038;53.064;8.624;2022-12-10T14:49:39;2.10;99.90
9998;DHT22;5038;53.064;8.624;2022-12-10T14:52:11;2.10;99.90
9998;DHT22;5038;53.064;8.624;2022-12-10T14:54:40;2.10;99.90
9998;DHT22;5038;53.064;8.624;2022-12-10T14:57:15;2.10;99.90
9998;DHT22;5038;53.064;8.624;2022-12-10T14:59:49;2.10;99.90
9998;DHT22;5038;53.064;8.624;2022-12-10T15:02:22;2.10;99.90
9998;DHT22;5038;53.064;8.624;2022-12-10T15:04:53;2.10;99.90
9998;DHT22;5038;53.064;8.624;2022-12-10T15:07:26;2.00;99.90
9998;DHT22;5038;53.064;8.624;2022-12-10T15:09:58;2.10;99.90
9998;DHT22;5038;53.064;8.624;2022-12-10T15:12:32;2.10;99.90
9998;DHT22;5038;53.064;8.624;2022-12-10T15:15:11;2.00;99.90
9998;DHT22;5038;53.064;8.624;2022-12-10T15:17:42;2.00;99.90
9998;DHT22;5038;53.064;8.624;2022-12-10T15:20:22;2.00;99.90
9998;DHT22;5038;53.064;8.624;2022-12-10T15:22:51;2.00;99.90
9998;DHT22;5038;53.064;8.624;2022-12-10T15:25:25;2.00;99.90
9998;DHT22;5038;53.064;8.624;2022-12-10T15:27:57;2.00;99.90
9998;DHT22;5038;53.064;8.624;2022-12-10T15:30:34;2.00;99.90
9998;DHT22;5038;53.064;8.624;2022-12-10T15:33:22;2.00;99.90
9998;DHT22;5038;53.064;8.624;2022-12-10T15:35:56;2.00;99.90
9998;DHT22;5038;53.064;8.624;2022-12-10T15:38:25;2.00;99.90
9998;DHT22;5038;53.064;8.624;2022-12-10T15:40:58;2.00;99.90
9998;DHT22;5038;53.064;8.624;2022-12-10T15:43:28;2.00;99.90
9998;DHT22;5038;53.064;8.624;2022-12-10T15:45:57;1.90;99.90
9998;DHT22;5038;53.064;8.624;2022-12-10T15:48:28;1.90;99.90
9998;DHT22;5038;53.064;8.624;2022-12-10T15:50:58;1.90;99.90
9998;DHT22;5038;53.064;8.624;2022-12-10T15:53:34;1.90;99.90
9998;DHT22;5038;53.064;8.624;2022-12-10T15:56:02;1.90;99.90
9998;DHT22;5038;53.064;8.624;2022-12-10T15:58:30;1.90;99.90
9998;DHT22;5038;53.064;8.624;2022-12-10T16:00:59;1.80;99.90
9998;DHT22;5038;53.064;8.624;2022-12-10T16:03:29;1.80;99.90
9998;DHT22;5038;53.064;8.624;2022-12-10T16:05:59;1.80;99.90
9998;DHT22;5038;53.064;8.624;2022-12-10T16:08:28;1.80;99.90
9998;DHT22;5038;53.064;8.624;2022-12-10T16:11:02;1.80;99.90
9998;DHT22;5038;53.064;8.624;2022-12-10T16:13:33;1.80;99.90
9998;DHT22;5038;53.064;8.624;2022-12-10T16:16:05;1.80;99.90
9998;DHT22;5038;53.064;8.624;2022-12-10T16:18:34;1.80;99.90
9998;DHT22;5038;53.064;8.624;2022-12-10T16:21:06;1.80;99.90
9998;DHT22;5038;53.064;8.624;2022-12-10T16:23:35;1.80;99.90
9998;DHT22;5038;53.064;8.624;2022-12-10T16:26:12;1.70;99.90
9998;DHT22;5038;53.064;8.624;2022-12-10T16:28:41;1.70;99.90
9998;DHT22;5038;53.064;8.624;2022-12-10T16:31:11;1.70;99.90
9998;DHT22;5038;53.064;8.624;2022-12-10T16:33:40;1.70;99.90
9998;DHT22;5038;53.064;8.624;2022-12-10T16:36:11;1.70;99.90
9998;DHT22;5038;53.064;8.624;2022-12-10T16:38:39;1.70;99.90
9998;DHT22;5038;53.064;8.624;2022-12-10T16:41:15;1.70;99.90
9998;DHT22;5038;53.064;8.624;2022-12-10T16:43:44;1.60;99.90
9998;DHT22;5038;53.064;8.624;2022-12-10T16:46:13;1.70;99.90
9998;DHT22;5038;53.064;8.624;2022-12-10T16:48:41;1.60;99.90
9998;DHT22;5038;53.064;8.624;2022-12-10T16:51:15;1.60;99.90
9998;DHT22;5038;53.064;8.624;2022-12-10T16:53:45;1.60;99.90
9998;DHT22;5038;53.064;8.624;2022-12-10T16:56:14;1.60;99.90
9998;DHT22;5038;53.064;8.624;2022-12-10T16:58:43;1.60;99.90
9998;DHT22;5038;53.064;8.624;2022-12-10T17:01:17;1.50;99.90
9998;DHT22;5038;53.064;8.624;2022-12-10T17:03:48;1.50;99.90
9998;DHT22;5038;53.064;8.624;2022-12-10T17:06:21;1.50;99.90
9998;DHT22;5038;53.064;8.624;2022-12-10T17:08:49;1.60;99.90